createdAt,value
2023-10-31T00:00:36.630Z,994.39
2023-10-31T00:01:40.902Z,994.40
2023-10-31T00:02:45.282Z,994.39
2023-10-31T00:03:49.530Z,994.41
2023-10-31T00:04:53.846Z,994.39
2023-10-31T00:06:12.191Z,994.38
2023-10-31T00:07:15.389Z,994.40
2023-10-31T00:08:19.578Z,994.38
2023-10-31T00:09:23.922Z,994.36
2023-10-31T00:10:28.366Z,994.38
2023-10-31T00:11:32.634Z,994.36
2023-10-31T00:12:36.931Z,994.35
2023-10-31T00:13:41.262Z,994.33
2023-10-31T00:14:45.592Z,994.29
2023-10-31T00:15:49.990Z,994.27
2023-10-31T00:16:54.297Z,994.25
2023-10-31T00:17:58.602Z,994.20
2023-10-31T00:19:02.881Z,994.18
2023-10-31T00:20:07.260Z,994.18
2023-10-31T00:22:39.058Z,994.14
2023-10-31T00:23:43.192Z,994.13
2023-10-31T00:24:47.547Z,994.11
2023-10-31T00:25:51.825Z,994.08
2023-10-31T00:26:56.190Z,994.07
2023-10-31T00:28:00.518Z,994.06
2023-10-31T00:29:04.846Z,994.03
2023-10-31T00:30:09.188Z,994.02
2023-10-31T00:31:13.518Z,993.99
2023-10-31T00:32:17.743Z,993.97
2023-10-31T00:33:23.018Z,993.97
2023-10-31T00:34:26.929Z,993.91
2023-10-31T00:35:31.252Z,993.93
2023-10-31T00:36:35.593Z,993.90
2023-10-31T00:37:39.931Z,993.89
2023-10-31T00:38:44.357Z,993.87
2023-10-31T00:39:48.628Z,993.83
2023-10-31T00:40:53.032Z,993.82
2023-10-31T00:41:57.346Z,993.81
2023-10-31T00:43:01.683Z,993.81
2023-10-31T00:44:05.986Z,993.79
2023-10-31T00:45:10.332Z,993.77
2023-10-31T00:46:14.689Z,993.75
2023-10-31T00:47:19.113Z,993.76
2023-10-31T00:48:23.414Z,993.76
2023-10-31T00:49:27.679Z,993.75
2023-10-31T00:50:31.887Z,993.72
2023-10-31T00:51:36.232Z,993.66
2023-10-31T00:52:40.627Z,993.63
2023-10-31T00:53:44.857Z,993.62
2023-10-31T00:54:49.209Z,993.61
2023-10-31T00:55:53.483Z,993.58
2023-10-31T00:56:57.820Z,993.57
2023-10-31T00:58:02.153Z,993.54
2023-10-31T00:59:06.509Z,993.52
2023-10-31T01:00:10.783Z,993.50
2023-10-31T01:01:15.180Z,993.48
2023-10-31T01:02:19.578Z,993.42
2023-10-31T01:03:23.894Z,993.42
2023-10-31T01:04:28.097Z,993.43
2023-10-31T01:05:35.459Z,993.41
2023-10-31T01:06:38.863Z,993.42
2023-10-31T01:07:43.192Z,993.42
2023-10-31T01:08:47.446Z,993.42
2023-10-31T01:09:51.809Z,993.42
2023-10-31T01:10:56.166Z,993.42
2023-10-31T01:12:00.323Z,993.41
2023-10-31T01:13:04.718Z,993.40
2023-10-31T01:14:08.984Z,993.38
2023-10-31T01:15:13.319Z,993.36
2023-10-31T01:16:17.597Z,993.38
2023-10-31T01:17:24.906Z,993.34
2023-10-31T01:18:28.341Z,993.37
2023-10-31T01:19:32.596Z,993.35
2023-10-31T01:20:36.907Z,993.34
2023-10-31T01:21:41.274Z,993.35
2023-10-31T01:22:45.515Z,993.33
2023-10-31T01:23:52.814Z,993.33
2023-10-31T01:24:56.294Z,993.31
2023-10-31T01:26:00.642Z,993.27
2023-10-31T01:27:04.894Z,993.26
2023-10-31T01:28:09.195Z,993.25
2023-10-31T01:29:13.511Z,993.21
2023-10-31T01:30:17.799Z,993.23
2023-10-31T01:31:22.118Z,993.20
2023-10-31T01:32:26.696Z,993.16
2023-10-31T01:33:30.840Z,993.16
2023-10-31T01:34:35.211Z,993.19
2023-10-31T01:35:39.463Z,993.19
2023-10-31T01:36:44.701Z,993.21
2023-10-31T01:37:48.733Z,993.21
2023-10-31T01:38:52.969Z,993.22
2023-10-31T01:40:11.306Z,993.24
2023-10-31T01:41:14.313Z,993.23
2023-10-31T01:42:18.627Z,993.22
2023-10-31T01:43:22.947Z,993.24
2023-10-31T01:44:41.333Z,993.26
2023-10-31T01:45:44.591Z,993.25
2023-10-31T01:46:48.735Z,993.24
2023-10-31T01:47:53.160Z,993.22
2023-10-31T01:48:57.301Z,993.23
2023-10-31T01:50:01.766Z,993.22
2023-10-31T01:51:05.952Z,993.22
2023-10-31T01:52:10.337Z,993.22
2023-10-31T01:53:14.621Z,993.20
2023-10-31T01:54:19.002Z,993.18
2023-10-31T01:55:23.306Z,993.17
2023-10-31T01:56:27.507Z,993.13
2023-10-31T01:57:31.888Z,993.11
2023-10-31T01:58:36.293Z,993.10
2023-10-31T01:59:40.541Z,993.08
2023-10-31T02:00:58.877Z,993.06
2023-10-31T02:02:02.061Z,993.04
2023-10-31T02:03:20.436Z,993.04
2023-10-31T02:04:23.448Z,993.02
2023-10-31T02:05:27.671Z,993.00
2023-10-31T02:06:31.973Z,993.00
2023-10-31T02:07:39.438Z,993.00
2023-10-31T02:08:42.801Z,992.99
2023-10-31T02:09:47.137Z,992.98
2023-10-31T02:10:51.466Z,992.97
2023-10-31T02:11:56.658Z,992.95
2023-10-31T02:13:00.684Z,992.93
2023-10-31T02:14:05.002Z,992.90
2023-10-31T02:15:09.328Z,992.87
2023-10-31T02:16:13.620Z,992.83
2023-10-31T02:17:32.018Z,992.80
2023-10-31T02:18:35.104Z,992.81
2023-10-31T02:19:39.419Z,992.81
2023-10-31T02:20:43.692Z,992.78
2023-10-31T02:21:48.017Z,992.78
2023-10-31T02:22:52.409Z,992.78
2023-10-31T02:23:56.652Z,992.77
2023-10-31T02:25:00.916Z,992.72
2023-10-31T02:26:05.425Z,992.70
2023-10-31T02:27:23.810Z,992.68
2023-10-31T02:28:27.003Z,992.67
2023-10-31T02:29:31.238Z,992.68
2023-10-31T02:30:35.502Z,992.70
2023-10-31T02:31:39.898Z,992.68
2023-10-31T02:32:44.204Z,992.64
2023-10-31T02:33:54.340Z,992.63
2023-10-31T02:34:57.337Z,992.61
2023-10-31T02:36:01.679Z,992.58
2023-10-31T02:37:05.972Z,992.56
2023-10-31T02:38:10.336Z,992.57
2023-10-31T02:39:14.570Z,992.55
2023-10-31T02:40:18.847Z,992.56
2023-10-31T02:41:23.130Z,992.57
2023-10-31T02:42:27.492Z,992.56
2023-10-31T02:43:31.808Z,992.52
2023-10-31T02:44:36.120Z,992.50
2023-10-31T02:45:40.486Z,992.50
2023-10-31T02:46:44.806Z,992.49
2023-10-31T02:47:48.962Z,992.49
2023-10-31T02:48:53.366Z,992.45
2023-10-31T02:49:57.754Z,992.41
2023-10-31T02:51:01.964Z,992.41
2023-10-31T02:52:06.292Z,992.39
2023-10-31T02:53:10.614Z,992.38
2023-10-31T02:54:17.962Z,992.35
2023-10-31T02:55:21.411Z,992.32
2023-10-31T02:56:25.620Z,992.31
2023-10-31T02:57:29.871Z,992.30
2023-10-31T02:58:34.207Z,992.25
2023-10-31T02:59:38.541Z,992.25
2023-10-31T03:00:42.922Z,992.31
2023-10-31T03:01:47.325Z,992.31
2023-10-31T03:02:51.691Z,992.30
2023-10-31T03:03:55.917Z,992.30
2023-10-31T03:05:00.185Z,992.29
2023-10-31T03:06:04.424Z,992.31
2023-10-31T03:07:08.767Z,992.28
2023-10-31T03:08:13.110Z,992.28
2023-10-31T03:09:17.408Z,992.27
2023-10-31T03:10:21.740Z,992.22
2023-10-31T03:11:25.983Z,992.20
2023-10-31T03:12:30.212Z,992.17
2023-10-31T03:13:34.614Z,992.17
2023-10-31T03:14:38.943Z,992.17
2023-10-31T03:15:43.204Z,992.18
2023-10-31T03:16:47.547Z,992.18
2023-10-31T03:17:51.857Z,992.17
2023-10-31T03:18:56.194Z,992.13
2023-10-31T03:20:00.610Z,992.14
2023-10-31T03:21:04.852Z,992.15
2023-10-31T03:22:09.280Z,992.14
2023-10-31T03:23:13.573Z,992.15
2023-10-31T03:24:17.824Z,992.14
2023-10-31T03:25:22.156Z,992.11
2023-10-31T03:26:26.550Z,992.09
2023-10-31T03:27:30.895Z,992.04
2023-10-31T03:28:35.207Z,992.03
2023-10-31T03:29:39.507Z,992.05
2023-10-31T03:30:43.813Z,992.05
2023-10-31T03:31:48.084Z,992.03
2023-10-31T03:32:52.564Z,992.03
2023-10-31T03:33:56.662Z,992.02
2023-10-31T03:35:01.086Z,992.03
2023-10-31T03:36:05.340Z,992.00
2023-10-31T03:37:09.680Z,992.00
2023-10-31T03:38:14.135Z,991.99
2023-10-31T03:39:18.408Z,992.00
2023-10-31T03:40:22.681Z,991.99
2023-10-31T03:41:26.934Z,991.99
2023-10-31T03:42:31.343Z,992.00
2023-10-31T03:43:35.678Z,992.00
2023-10-31T03:44:39.952Z,992.00
2023-10-31T03:45:44.299Z,991.98
2023-10-31T03:46:48.669Z,991.97
2023-10-31T03:47:52.938Z,991.95
2023-10-31T03:48:57.230Z,991.92
2023-10-31T03:50:01.641Z,991.90
2023-10-31T03:51:19.909Z,991.86
2023-10-31T03:52:23.021Z,991.78
2023-10-31T03:53:27.287Z,991.77
2023-10-31T03:54:31.600Z,991.77
2023-10-31T03:55:49.924Z,991.77
2023-10-31T03:56:52.989Z,991.80
2023-10-31T03:57:57.309Z,991.74
2023-10-31T03:59:01.551Z,991.77
2023-10-31T04:00:19.799Z,991.75
2023-10-31T04:01:22.972Z,991.71
2023-10-31T04:02:27.228Z,991.69
2023-10-31T04:03:31.562Z,991.62
2023-10-31T04:04:35.887Z,991.61
2023-10-31T04:05:40.214Z,991.62
2023-10-31T04:06:44.655Z,991.57
2023-10-31T04:07:49.005Z,991.57
2023-10-31T04:08:53.167Z,991.55
2023-10-31T04:09:57.443Z,991.55
2023-10-31T04:11:04.942Z,991.50
2023-10-31T04:12:08.266Z,991.45
2023-10-31T04:13:12.627Z,991.42
2023-10-31T04:14:17.030Z,991.35
2023-10-31T04:15:21.224Z,991.30
2023-10-31T04:16:39.786Z,991.27
2023-10-31T04:17:42.894Z,991.25
2023-10-31T04:18:46.972Z,991.27
2023-10-31T04:19:51.313Z,991.26
2023-10-31T04:20:55.596Z,991.23
2023-10-31T04:21:59.896Z,991.21
2023-10-31T04:23:04.158Z,991.19
2023-10-31T04:24:08.589Z,991.15
2023-10-31T04:25:12.863Z,991.12
2023-10-31T04:26:20.202Z,991.08
2023-10-31T04:27:23.629Z,991.08
2023-10-31T04:28:27.959Z,991.09
2023-10-31T04:29:32.053Z,991.13
2023-10-31T04:30:36.480Z,991.13
2023-10-31T04:31:44.182Z,991.12
2023-10-31T04:32:45.244Z,991.07
2023-10-31T04:33:49.472Z,991.02
2023-10-31T04:34:53.811Z,990.98
2023-10-31T04:35:58.101Z,990.98
2023-10-31T04:37:02.402Z,990.97
2023-10-31T04:38:06.717Z,990.96
2023-10-31T04:39:10.896Z,990.99
2023-10-31T04:40:15.166Z,990.97
2023-10-31T04:41:19.560Z,990.97
2023-10-31T04:42:23.766Z,990.96
2023-10-31T04:43:28.219Z,990.95
2023-10-31T04:44:32.388Z,990.97
2023-10-31T04:45:36.754Z,990.94
2023-10-31T04:46:41.193Z,990.93
2023-10-31T04:47:45.548Z,990.94
2023-10-31T04:48:49.741Z,990.94
2023-10-31T04:49:53.998Z,990.95
2023-10-31T04:50:58.295Z,990.96
2023-10-31T04:52:02.626Z,990.95
2023-10-31T04:53:06.957Z,990.95
2023-10-31T04:54:11.233Z,990.96
2023-10-31T04:55:18.558Z,990.96
2023-10-31T04:56:19.859Z,990.95
2023-10-31T04:57:24.137Z,990.95
2023-10-31T04:58:28.525Z,990.92
2023-10-31T04:59:32.760Z,990.86
2023-10-31T05:00:37.163Z,990.83
2023-10-31T05:01:41.559Z,990.79
2023-10-31T05:02:45.930Z,990.77
2023-10-31T05:03:54.352Z,990.74
2023-10-31T05:04:54.485Z,990.72
2023-10-31T05:05:58.769Z,990.69
2023-10-31T05:07:03.098Z,990.70
2023-10-31T05:08:07.452Z,990.71
2023-10-31T05:09:12.064Z,990.69
2023-10-31T05:10:15.955Z,990.72
2023-10-31T05:11:23.259Z,990.72
2023-10-31T05:12:26.721Z,990.71
2023-10-31T05:13:31.024Z,990.69
2023-10-31T05:14:49.432Z,990.65
2023-10-31T05:15:52.546Z,990.62
2023-10-31T05:16:59.740Z,990.60
2023-10-31T05:18:03.180Z,990.62
2023-10-31T05:19:07.400Z,990.64
2023-10-31T05:20:11.762Z,990.64
2023-10-31T05:21:16.041Z,990.64
2023-10-31T05:22:20.939Z,990.64
2023-10-31T05:23:24.682Z,990.65
2023-10-31T05:24:28.946Z,990.67
2023-10-31T05:25:33.367Z,990.66
2023-10-31T05:26:37.710Z,990.63
2023-10-31T05:27:42.062Z,990.62
2023-10-31T05:28:46.358Z,990.59
2023-10-31T05:29:50.648Z,990.57
2023-10-31T05:30:55.015Z,990.55
2023-10-31T05:31:59.332Z,990.53
2023-10-31T05:33:03.697Z,990.55
2023-10-31T05:34:07.971Z,990.56
2023-10-31T05:35:12.364Z,990.59
2023-10-31T05:36:16.661Z,990.58
2023-10-31T05:37:21.031Z,990.56
2023-10-31T05:38:39.301Z,990.55
2023-10-31T05:39:42.371Z,990.51
2023-10-31T05:40:46.664Z,990.48
2023-10-31T05:41:50.906Z,990.45
2023-10-31T05:42:55.207Z,990.41
2023-10-31T05:43:59.513Z,990.38
2023-10-31T05:45:03.864Z,990.38
2023-10-31T05:46:08.302Z,990.34
2023-10-31T05:47:12.503Z,990.37
2023-10-31T05:48:16.860Z,990.36
2023-10-31T05:49:21.692Z,990.34
2023-10-31T05:50:25.493Z,990.33
2023-10-31T05:51:29.844Z,990.32
2023-10-31T05:54:01.316Z,990.30
2023-10-31T05:56:33.126Z,990.26
2023-10-31T05:57:37.305Z,990.27
2023-10-31T05:58:41.605Z,990.25
2023-10-31T05:59:51.938Z,990.26
2023-10-31T06:00:54.876Z,990.26
2023-10-31T06:01:59.225Z,990.23
2023-10-31T06:03:03.569Z,990.23
2023-10-31T06:04:07.851Z,990.22
2023-10-31T06:05:12.237Z,990.22
2023-10-31T06:06:16.429Z,990.23
2023-10-31T06:07:20.805Z,990.22
2023-10-31T06:08:25.127Z,990.23
2023-10-31T06:09:29.304Z,990.21
2023-10-31T06:10:33.736Z,990.22
2023-10-31T06:11:38.085Z,990.22
2023-10-31T06:12:42.474Z,990.24
2023-10-31T06:13:46.784Z,990.23
2023-10-31T06:14:51.078Z,990.24
2023-10-31T06:15:57.545Z,990.25
2023-10-31T06:16:59.773Z,990.23
2023-10-31T06:18:04.231Z,990.25
2023-10-31T06:19:08.433Z,990.26
2023-10-31T06:20:12.852Z,990.26
2023-10-31T06:21:17.094Z,990.27
2023-10-31T06:22:21.476Z,990.27
2023-10-31T06:23:25.881Z,990.26
2023-10-31T06:24:30.132Z,990.29
2023-10-31T06:25:40.472Z,990.27
2023-10-31T06:26:43.427Z,990.30
2023-10-31T06:27:47.719Z,990.30
2023-10-31T06:29:03.042Z,990.30
2023-10-31T06:30:06.712Z,990.32
2023-10-31T06:31:14.790Z,990.31
2023-10-31T06:32:17.838Z,990.32
2023-10-31T06:33:22.164Z,990.27
2023-10-31T06:34:26.456Z,990.26
2023-10-31T06:35:30.718Z,990.25
2023-10-31T06:36:35.037Z,990.23
2023-10-31T06:37:39.237Z,990.21
2023-10-31T06:38:57.758Z,990.19
2023-10-31T06:40:01.046Z,990.21
2023-10-31T06:41:05.335Z,990.20
2023-10-31T06:42:09.639Z,990.20
2023-10-31T06:43:13.944Z,990.18
2023-10-31T06:44:18.299Z,990.19
2023-10-31T06:45:22.575Z,990.17
2023-10-31T06:46:27.050Z,990.18
2023-10-31T06:47:31.383Z,990.15
2023-10-31T06:48:35.654Z,990.14
2023-10-31T06:49:39.962Z,990.12
2023-10-31T06:50:44.295Z,990.13
2023-10-31T06:51:48.649Z,990.13
2023-10-31T06:52:53.175Z,990.13
2023-10-31T06:53:57.361Z,990.13
2023-10-31T06:55:01.613Z,990.13
2023-10-31T06:56:20.056Z,990.11
2023-10-31T06:57:23.137Z,990.10
2023-10-31T06:58:27.507Z,990.10
2023-10-31T06:59:31.802Z,990.11
2023-10-31T07:00:36.145Z,990.09
2023-10-31T07:01:40.472Z,990.06
2023-10-31T07:02:44.893Z,990.07
2023-10-31T07:03:49.208Z,990.07
2023-10-31T07:05:07.581Z,990.09
2023-10-31T07:06:10.703Z,990.08
2023-10-31T07:07:14.937Z,990.07
2023-10-31T07:08:19.431Z,990.04
2023-10-31T07:09:23.624Z,990.04
2023-10-31T07:10:27.938Z,990.02
2023-10-31T07:11:32.282Z,990.04
2023-10-31T07:12:36.596Z,990.03
2023-10-31T07:13:40.912Z,990.03
2023-10-31T07:14:45.238Z,990.06
2023-10-31T07:15:49.605Z,990.02
2023-10-31T07:16:53.992Z,990.01
2023-10-31T07:17:58.439Z,990.01
2023-10-31T07:19:02.730Z,990.00
2023-10-31T07:20:07.091Z,989.98
2023-10-31T07:21:11.393Z,989.99
2023-10-31T07:22:15.710Z,989.99
2023-10-31T07:23:20.109Z,989.98
2023-10-31T07:24:24.346Z,989.96
2023-10-31T07:25:28.658Z,989.95
2023-10-31T07:26:32.904Z,989.97
2023-10-31T07:27:37.258Z,989.96
2023-10-31T07:28:41.621Z,989.98
2023-10-31T07:29:45.958Z,989.99
2023-10-31T07:30:50.328Z,989.97
2023-10-31T07:31:54.697Z,989.94
2023-10-31T07:33:13.092Z,989.93
2023-10-31T07:34:16.121Z,989.94
2023-10-31T07:35:20.425Z,989.94
2023-10-31T07:36:24.714Z,989.91
2023-10-31T07:37:29.061Z,989.89
2023-10-31T07:38:33.394Z,989.87
2023-10-31T07:39:37.800Z,989.88
2023-10-31T07:40:42.086Z,989.88
2023-10-31T07:41:46.419Z,989.88
2023-10-31T07:42:50.769Z,989.89
2023-10-31T07:43:55.094Z,989.91
2023-10-31T07:44:59.459Z,989.92
2023-10-31T07:46:03.970Z,989.95
2023-10-31T07:47:08.195Z,989.92
2023-10-31T07:48:12.513Z,989.95
2023-10-31T07:49:16.873Z,989.98
2023-10-31T07:50:21.328Z,990.03
2023-10-31T07:51:39.584Z,990.04
2023-10-31T07:52:42.646Z,990.06
2023-10-31T07:53:46.929Z,990.03
2023-10-31T07:54:51.266Z,990.01
2023-10-31T07:56:09.603Z,990.03
2023-10-31T07:57:26.686Z,990.04
2023-10-31T07:58:29.725Z,989.99
2023-10-31T07:59:33.985Z,990.01
2023-10-31T08:00:41.312Z,989.98
2023-10-31T08:01:44.807Z,989.98
2023-10-31T08:02:49.110Z,989.94
2023-10-31T08:03:53.490Z,989.90
2023-10-31T08:04:57.764Z,989.88
2023-10-31T08:06:16.154Z,989.91
2023-10-31T08:07:19.297Z,989.90
2023-10-31T08:08:23.597Z,989.88
2023-10-31T08:09:41.980Z,989.88
2023-10-31T08:10:45.114Z,989.86
2023-10-31T08:11:49.410Z,989.86
2023-10-31T08:12:53.738Z,989.87
2023-10-31T08:14:01.128Z,989.87
2023-10-31T08:15:04.547Z,989.88
2023-10-31T08:16:09.180Z,989.91
2023-10-31T08:17:13.290Z,989.91
2023-10-31T08:18:17.529Z,989.92
2023-10-31T08:19:27.939Z,989.91
2023-10-31T08:20:30.916Z,989.94
2023-10-31T08:21:35.236Z,989.93
2023-10-31T08:22:45.570Z,989.90
2023-10-31T08:23:48.544Z,989.90
2023-10-31T08:24:52.871Z,989.91
2023-10-31T08:25:57.268Z,989.91
2023-10-31T08:27:01.555Z,989.90
2023-10-31T08:28:05.885Z,989.91
2023-10-31T08:29:10.299Z,989.93
2023-10-31T08:30:14.608Z,989.93
2023-10-31T08:31:18.991Z,989.95
2023-10-31T08:32:23.341Z,989.97
2023-10-31T08:33:27.613Z,989.98
2023-10-31T08:34:31.963Z,989.97
2023-10-31T08:35:36.296Z,989.97
2023-10-31T08:36:40.684Z,989.96
2023-10-31T08:37:45.004Z,990.00
2023-10-31T08:38:49.341Z,989.96
2023-10-31T08:39:53.668Z,989.99
2023-10-31T08:40:58.040Z,990.02
2023-10-31T08:42:02.365Z,990.01
2023-10-31T08:43:06.717Z,990.04
2023-10-31T08:44:11.129Z,990.02
2023-10-31T08:45:15.408Z,990.02
2023-10-31T08:46:19.815Z,990.02
2023-10-31T08:47:24.159Z,990.06
2023-10-31T08:48:28.427Z,990.08
2023-10-31T08:49:32.760Z,990.05
2023-10-31T08:50:37.104Z,990.02
2023-10-31T08:51:41.420Z,990.05
2023-10-31T08:52:45.839Z,990.06
2023-10-31T08:53:50.104Z,990.06
2023-10-31T08:54:54.485Z,990.06
2023-10-31T08:55:58.876Z,990.08
2023-10-31T08:57:03.224Z,990.11
2023-10-31T08:58:07.528Z,990.13
2023-10-31T08:59:11.928Z,990.10
2023-10-31T09:00:19.216Z,990.11
2023-10-31T09:01:22.662Z,990.12
2023-10-31T09:02:41.165Z,990.12
2023-10-31T09:03:44.387Z,990.14
2023-10-31T09:04:48.710Z,990.16
2023-10-31T09:05:53.011Z,990.17
2023-10-31T09:06:57.375Z,990.17
2023-10-31T09:08:01.733Z,990.21
2023-10-31T09:10:33.158Z,990.20
2023-10-31T09:11:37.451Z,990.21
2023-10-31T09:12:41.739Z,990.23
2023-10-31T09:13:46.088Z,990.22
2023-10-31T09:14:50.474Z,990.25
2023-10-31T09:15:54.859Z,990.22
2023-10-31T09:16:59.199Z,990.26
2023-10-31T09:18:03.548Z,990.28
2023-10-31T09:19:07.806Z,990.29
2023-10-31T09:20:12.177Z,990.28
2023-10-31T09:21:16.493Z,990.35
2023-10-31T09:22:20.841Z,990.32
2023-10-31T09:23:25.211Z,990.34
2023-10-31T09:24:29.515Z,990.37
2023-10-31T09:25:33.878Z,990.38
2023-10-31T09:26:38.252Z,990.37
2023-10-31T09:27:42.597Z,990.40
2023-10-31T09:28:46.975Z,990.40
2023-10-31T09:29:51.342Z,990.42
2023-10-31T09:30:55.665Z,990.43
2023-10-31T09:32:00.022Z,990.43
2023-10-31T09:33:04.410Z,990.44
2023-10-31T09:34:08.669Z,990.43
2023-10-31T09:35:13.059Z,990.46
2023-10-31T09:36:17.346Z,990.45
2023-10-31T09:37:22.045Z,990.45
2023-10-31T09:39:53.342Z,990.48
2023-10-31T09:40:57.641Z,990.52
2023-10-31T09:42:01.913Z,990.51
2023-10-31T09:43:06.277Z,990.50
2023-10-31T09:44:10.742Z,990.53
2023-10-31T09:45:15.040Z,990.52
2023-10-31T09:46:19.327Z,990.52
2023-10-31T09:47:23.715Z,990.51
2023-10-31T09:48:28.003Z,990.51
2023-10-31T09:49:32.402Z,990.56
2023-10-31T09:50:36.790Z,990.58
2023-10-31T09:51:41.050Z,990.57
2023-10-31T09:52:45.448Z,990.61
2023-10-31T09:53:49.772Z,990.61
2023-10-31T09:54:54.167Z,990.62
2023-10-31T09:55:58.645Z,990.64
2023-10-31T09:57:02.820Z,990.64
2023-10-31T09:58:21.179Z,990.62
2023-10-31T09:59:24.595Z,990.61
2023-10-31T10:01:56.247Z,990.64
2023-10-31T10:03:00.661Z,990.62
2023-10-31T10:04:04.849Z,990.61
2023-10-31T10:05:09.109Z,990.61
2023-10-31T10:06:13.448Z,990.64
2023-10-31T10:07:17.845Z,990.65
2023-10-31T10:08:22.196Z,990.65
2023-10-31T10:09:26.480Z,990.66
2023-10-31T10:10:30.827Z,990.67
2023-10-31T10:11:35.187Z,990.67
2023-10-31T10:12:39.522Z,990.67
2023-10-31T10:13:43.840Z,990.66
2023-10-31T10:14:48.204Z,990.69
2023-10-31T10:15:52.581Z,990.68
2023-10-31T10:16:56.966Z,990.66
2023-10-31T10:18:01.214Z,990.64
2023-10-31T10:19:05.539Z,990.60
2023-10-31T10:20:10.036Z,990.58
2023-10-31T10:21:14.148Z,990.55
2023-10-31T10:22:18.524Z,990.52
2023-10-31T10:23:23.013Z,990.49
2023-10-31T10:24:27.187Z,990.51
2023-10-31T10:25:41.540Z,990.47
2023-10-31T10:26:35.891Z,990.47
2023-10-31T10:27:40.159Z,990.45
2023-10-31T10:28:44.521Z,990.42
2023-10-31T10:29:48.841Z,990.43
2023-10-31T10:30:53.168Z,990.42
2023-10-31T10:31:57.585Z,990.43
2023-10-31T10:33:01.873Z,990.42
2023-10-31T10:34:06.396Z,990.41
2023-10-31T10:35:10.604Z,990.43
2023-10-31T10:36:14.952Z,990.40
2023-10-31T10:37:19.233Z,990.37
2023-10-31T10:38:23.590Z,990.33
2023-10-31T10:39:27.947Z,990.37
2023-10-31T10:40:32.259Z,990.36
2023-10-31T10:41:36.673Z,990.35
2023-10-31T10:42:40.963Z,990.32
2023-10-31T10:43:45.313Z,990.32
2023-10-31T10:44:50.481Z,990.31
2023-10-31T10:45:53.983Z,990.27
2023-10-31T10:46:58.352Z,990.26
2023-10-31T10:48:02.695Z,990.27
2023-10-31T10:49:07.029Z,990.25
2023-10-31T10:50:11.416Z,990.24
2023-10-31T10:51:15.685Z,990.22
2023-10-31T10:52:20.041Z,990.26
2023-10-31T10:53:24.422Z,990.19
2023-10-31T10:54:28.715Z,990.22
2023-10-31T10:55:33.032Z,990.26
2023-10-31T10:56:37.388Z,990.16
2023-10-31T10:57:41.772Z,990.22
2023-10-31T10:58:46.089Z,990.20
2023-10-31T10:59:50.437Z,990.22
2023-10-31T11:00:54.755Z,990.26
2023-10-31T11:01:59.122Z,990.24
2023-10-31T11:03:03.405Z,990.28
2023-10-31T11:04:07.780Z,990.22
2023-10-31T11:05:26.211Z,990.23
2023-10-31T11:06:29.483Z,990.22
2023-10-31T11:07:33.788Z,990.25
2023-10-31T11:08:41.140Z,990.20
2023-10-31T11:09:44.520Z,990.24
2023-10-31T11:10:48.854Z,990.26
2023-10-31T11:11:53.223Z,990.22
2023-10-31T11:12:57.525Z,990.22
2023-10-31T11:14:01.923Z,990.18
2023-10-31T11:15:06.170Z,990.20
2023-10-31T11:16:10.544Z,990.19
2023-10-31T11:17:14.904Z,990.19
2023-10-31T11:18:19.308Z,990.13
2023-10-31T11:19:26.576Z,990.15
2023-10-31T11:20:44.047Z,990.09
2023-10-31T11:21:47.327Z,990.06
2023-10-31T11:22:51.596Z,990.06
2023-10-31T11:23:55.904Z,990.07
2023-10-31T11:25:00.231Z,990.06
2023-10-31T11:26:04.601Z,990.10
2023-10-31T11:27:08.960Z,990.11
2023-10-31T11:28:13.251Z,990.15
2023-10-31T11:29:17.689Z,990.14
2023-10-31T11:30:22.032Z,990.16
2023-10-31T11:31:26.315Z,990.17
2023-10-31T11:32:30.693Z,990.16
2023-10-31T11:33:49.072Z,990.17
2023-10-31T11:34:52.390Z,990.17
2023-10-31T11:35:56.608Z,990.20
2023-10-31T11:37:01.070Z,990.20
2023-10-31T11:38:05.462Z,990.21
2023-10-31T11:39:09.680Z,990.21
2023-10-31T11:40:14.110Z,990.22
2023-10-31T11:41:18.421Z,990.21
2023-10-31T11:42:22.715Z,990.23
2023-10-31T11:43:27.078Z,990.22
2023-10-31T11:44:31.440Z,990.20
2023-10-31T11:45:35.777Z,990.21
2023-10-31T11:46:40.132Z,990.20
2023-10-31T11:47:44.430Z,990.24
2023-10-31T11:48:48.764Z,990.24
2023-10-31T11:49:53.074Z,990.25
2023-10-31T11:50:57.736Z,990.26
2023-10-31T11:52:01.880Z,990.26
2023-10-31T11:53:06.493Z,990.28
2023-10-31T11:54:10.432Z,990.30
2023-10-31T11:55:14.805Z,990.31
2023-10-31T11:56:19.183Z,990.31
2023-10-31T11:57:23.498Z,990.27
2023-10-31T11:58:27.857Z,990.28
2023-10-31T11:59:32.206Z,990.29
2023-10-31T12:00:36.625Z,990.29
2023-10-31T12:01:40.948Z,990.24
2023-10-31T12:02:45.332Z,990.24
2023-10-31T12:03:49.696Z,990.23
2023-10-31T12:04:53.980Z,990.27
2023-10-31T12:05:58.333Z,990.25
2023-10-31T12:07:02.668Z,990.25
2023-10-31T12:08:06.915Z,990.27
2023-10-31T12:09:11.277Z,990.25
2023-10-31T12:10:15.642Z,990.25
2023-10-31T12:11:20.086Z,990.23
2023-10-31T12:12:24.366Z,990.26
2023-10-31T12:13:28.705Z,990.29
2023-10-31T12:14:33.062Z,990.29
2023-10-31T12:15:37.359Z,990.29
2023-10-31T12:16:41.692Z,990.27
2023-10-31T12:17:46.079Z,990.30
2023-10-31T12:18:50.324Z,990.28
2023-10-31T12:19:54.779Z,990.27
2023-10-31T12:20:59.032Z,990.28
2023-10-31T12:22:03.345Z,990.31
2023-10-31T12:23:07.768Z,990.34
2023-10-31T12:24:12.063Z,990.36
2023-10-31T12:25:16.425Z,990.39
2023-10-31T12:26:20.664Z,990.43
2023-10-31T12:27:25.052Z,990.39
2023-10-31T12:28:29.396Z,990.39
2023-10-31T12:29:33.772Z,990.41
2023-10-31T12:30:38.000Z,990.39
2023-10-31T12:31:42.435Z,990.43
2023-10-31T12:32:46.808Z,990.44
2023-10-31T12:33:51.079Z,990.43
2023-10-31T12:34:55.485Z,990.44
2023-10-31T12:35:59.698Z,990.46
2023-10-31T12:37:04.034Z,990.47
2023-10-31T12:38:08.390Z,990.48
2023-10-31T12:39:12.701Z,990.51
2023-10-31T12:40:17.049Z,990.55
2023-10-31T12:41:21.394Z,990.55
2023-10-31T12:42:25.738Z,990.58
2023-10-31T12:43:30.112Z,990.59
2023-10-31T12:44:34.494Z,990.61
2023-10-31T12:45:38.795Z,990.63
2023-10-31T12:46:43.261Z,990.65
2023-10-31T12:47:47.601Z,990.67
2023-10-31T12:48:51.799Z,990.73
2023-10-31T12:49:56.184Z,990.71
2023-10-31T12:51:00.474Z,990.74
2023-10-31T12:52:05.133Z,990.74
2023-10-31T12:53:09.210Z,990.79
2023-10-31T12:54:13.510Z,990.82
2023-10-31T12:55:19.153Z,990.82
2023-10-31T12:56:22.353Z,990.86
2023-10-31T12:57:26.741Z,990.95
2023-10-31T12:58:30.998Z,991.07
2023-10-31T12:59:35.472Z,991.31
2023-10-31T13:00:39.679Z,991.39
2023-10-31T13:01:44.013Z,991.54
2023-10-31T13:02:48.511Z,991.59
2023-10-31T13:03:52.878Z,991.72
2023-10-31T13:04:57.102Z,991.80
2023-10-31T13:06:01.347Z,991.88
2023-10-31T13:07:05.646Z,991.98
2023-10-31T13:08:10.016Z,992.10
2023-10-31T13:10:41.592Z,992.24
2023-10-31T13:11:45.822Z,992.28
2023-10-31T13:12:50.142Z,992.32
2023-10-31T13:13:54.457Z,992.35
2023-10-31T13:14:58.781Z,992.39
2023-10-31T13:16:03.135Z,992.47
2023-10-31T13:17:07.397Z,992.54
2023-10-31T13:18:11.771Z,992.54
2023-10-31T13:19:17.169Z,992.62
2023-10-31T13:20:20.419Z,992.69
2023-10-31T13:21:24.732Z,992.75
2023-10-31T13:22:29.021Z,992.80
2023-10-31T13:23:33.367Z,992.84
2023-10-31T13:24:37.702Z,992.92
2023-10-31T13:25:42.059Z,992.94
2023-10-31T13:26:46.246Z,993.02
2023-10-31T13:27:50.626Z,993.08
2023-10-31T13:28:54.944Z,993.15
2023-10-31T13:29:59.201Z,993.20
2023-10-31T13:31:04.533Z,993.24
2023-10-31T13:32:08.422Z,993.29
2023-10-31T13:33:18.833Z,993.33
2023-10-31T13:34:21.868Z,993.44
2023-10-31T13:35:26.101Z,993.49
2023-10-31T13:36:30.358Z,993.51
2023-10-31T13:37:34.666Z,993.57
2023-10-31T13:38:38.854Z,993.60
2023-10-31T13:39:43.229Z,993.63